Time;durP1;ratioP1;P1;durP2;ratioP2;P2;SDS_P1;SDS_P2;PMS_P1;PMS_P2;Temp;Humidity;BMP_temperature;BMP_pressure;BME280_temperature;BME280_humidity;BME280_pressure;Samples;Min_cycle;Max_cycle;Signal;HPM_P1;HPM_P2
2024/01/17 00:01:18;;;;;;;;;;;;;;;-21.20;57.82;97929.63;6243791;28;19921;-65
2024/01/17 00:04:21;;;;;;;;;;;;;;;-21.13;57.45;97921.84;6244078;28;19927;-67
2024/01/17 00:07:24;;;;;;;;;;;;;;;-21.33;58.14;97923.75;6243992;28;19916;-66
2024/01/17 00:10:27;;;;;;;;;;;;;;;-21.10;57.76;97927.06;6243999;28;19928;-67
2024/01/17 00:13:31;;;;;;;;;;;;;;;-21.12;57.69;97913.56;6244470;28;19921;-67
2024/01/17 00:16:34;;;;;;;;;;;;;;;-21.32;58.16;97914.59;6243824;28;19928;-66
2024/01/17 00:19:35;;;;;;;;;;;;;;;-21.32;57.81;97915.47;6243476;28;19927;-67
2024/01/17 00:22:39;;;;;;;;;;;;;;;-21.48;58.37;97907.66;6210621;28;19921;-65
2024/01/17 00:25:42;;;;;;;;;;;;;;;-21.30;58.72;97906.47;6244619;28;20007;-67
2024/01/17 00:28:46;;;;;;;;;;;;;;;-21.15;58.58;97896.72;6244931;28;19921;-67
2024/01/17 00:31:51;;;;;;;;;;;;;;;-21.39;58.79;97898.34;6261772;28;19920;-67
2024/01/17 00:34:57;;;;;;;;;;;;;;;-21.14;59.48;97892.59;6269199;28;19921;-66
2024/01/17 00:37:58;;;;;;;;;;;;;;;-21.27;59.51;97897.47;6268726;28;20033;-67
2024/01/17 00:40:58;;;;;;;;;;;;;;;-21.27;58.84;97904.97;6269055;28;20062;-66
2024/01/17 00:44:04;;;;;;;;;;;;;;;-21.13;58.35;97892.72;6268848;28;19921;-66
2024/01/17 00:47:05;;;;;;;;;;;;;;;-21.33;59.24;97901.25;6268778;28;19924;-67
2024/01/17 00:50:07;;;;;;;;;;;;;;;-21.22;59.08;97886.19;6251282;28;19967;-67
2024/01/17 00:53:08;;;;;;;;;;;;;;;-20.87;58.77;97887.09;6267645;28;20059;-66
2024/01/17 00:56:09;;;;;;;;;;;;;;;-21.06;58.14;97889.03;6268024;28;19920;-66
2024/01/17 00:59:13;;;;;;;;;;;;;;;-21.15;58.57;97880.84;6268519;28;19920;-67
2024/01/17 01:02:14;;;;;;;;;;;;;;;-21.30;58.46;97866.47;6268837;28;19927;-67
2024/01/17 01:05:17;;;;;;;;;;;;;;;-21.28;58.67;97874.13;6268348;28;19964;-67
2024/01/17 01:08:18;;;;;;;;;;;;;;;-21.02;58.53;97880.13;6269021;28;20354;-67
2024/01/17 01:11:20;;;;;;;;;;;;;;;-21.26;58.42;97886.69;6268058;28;19975;-66
2024/01/17 01:14:26;;;;;;;;;;;;;;;-21.14;58.70;97868.50;6268251;28;20451;-67
2024/01/17 01:17:27;;;;;;;;;;;;;;;-21.09;58.90;97874.66;6268239;28;20027;-66
2024/01/17 01:20:28;;;;;;;;;;;;;;;-21.43;59.04;97873.88;6271950;28;20386;-65
2024/01/17 01:23:31;;;;;;;;;;;;;;;-21.41;59.10;97884.84;6272990;28;19920;-66
2024/01/17 01:26:32;;;;;;;;;;;;;;;-21.36;59.52;97888.53;6273010;28;20015;-66
2024/01/17 01:29:35;;;;;;;;;;;;;;;-21.17;59.45;97884.88;6273011;28;19927;-66
2024/01/17 01:32:42;;;;;;;;;;;;;;;-21.39;59.45;97880.84;6248049;28;19921;-66
2024/01/17 01:35:42;;;;;;;;;;;;;;;-21.33;58.64;97888.75;6247930;28;20000;-67
2024/01/17 01:38:43;;;;;;;;;;;;;;;-21.35;58.95;97892.75;6247738;28;20414;-66
2024/01/17 01:41:44;;;;;;;;;;;;;;;-21.18;59.14;97893.13;6247261;28;19943;-67
2024/01/17 01:44:45;;;;;;;;;;;;;;;-21.14;59.45;97905.97;6248201;28;19925;-66
2024/01/17 01:47:46;;;;;;;;;;;;;;;-21.01;59.24;97889.38;6247306;28;20010;-65
2024/01/17 01:50:47;;;;;;;;;;;;;;;-21.09;58.60;97889.66;6247038;28;20393;-66
2024/01/17 01:53:50;;;;;;;;;;;;;;;-21.13;59.18;97891.84;6247160;28;20039;-67
2024/01/17 01:56:53;;;;;;;;;;;;;;;-21.05;58.83;97890.78;6247658;28;19943;-68
2024/01/17 01:59:55;;;;;;;;;;;;;;;-20.97;58.97;97879.72;6247136;28;19921;-67
2024/01/17 02:03:03;;;;;;;;;;;;;;;-20.93;58.69;97875.78;6247465;28;19921;-67
2024/01/17 02:06:07;;;;;;;;;;;;;;;-21.09;58.91;97876.31;6247268;28;19921;-66
2024/01/17 02:09:11;;;;;;;;;;;;;;;-20.62;58.18;97873.84;6246643;28;19921;-66
2024/01/17 02:12:12;;;;;;;;;;;;;;;-20.81;59.08;97861.66;6246256;28;20030;-67
2024/01/17 02:15:13;;;;;;;;;;;;;;;-21.14;59.45;97860.09;6247200;28;19928;-66
2024/01/17 02:18:14;;;;;;;;;;;;;;;-21.04;59.53;97872.50;6229385;28;19921;-67
2024/01/17 02:21:15;;;;;;;;;;;;;;;-20.81;59.89;97861.66;6247426;28;19924;-66
2024/01/17 02:24:16;;;;;;;;;;;;;;;-20.89;59.36;97857.72;6246271;28;20405;-67
2024/01/17 02:27:18;;;;;;;;;;;;;;;-20.82;59.03;97864.06;6246690;28;19943;-67
2024/01/17 02:30:22;;;;;;;;;;;;;;;-20.74;59.14;97857.97;6251036;28;19920;-66
2024/01/17 02:33:23;;;;;;;;;;;;;;;-20.73;58.64;97849.69;6270767;28;19920;-66
2024/01/17 02:36:24;;;;;;;;;;;;;;;-20.58;59.22;97845.78;6271206;28;19928;-66
2024/01/17 02:39:25;;;;;;;;;;;;;;;-20.53;59.03;97851.97;6271148;28;20406;-66
2024/01/17 02:42:26;;;;;;;;;;;;;;;-20.87;58.75;97857.09;6252962;28;19927;-67
2024/01/17 02:45:29;;;;;;;;;;;;;;;-20.83;59.59;97857.31;6270929;28;20358;-66
2024/01/17 02:48:33;;;;;;;;;;;;;;;-20.73;59.70;97855.56;6271009;28;20310;-67
2024/01/17 02:51:35;;;;;;;;;;;;;;;-20.73;59.31;97857.22;6271605;28;19921;-67
2024/01/17 02:54:38;;;;;;;;;;;;;;;-20.87;59.21;97844.56;6270705;28;20044;-67
2024/01/17 02:57:39;;;;;;;;;;;;;;;-20.88;59.34;97854.50;6270805;28;19920;-67
2024/01/17 03:00:43;;;;;;;;;;;;;;;-20.43;59.00;97849.31;6270527;28;19921;-66
2024/01/17 03:03:47;;;;;;;;;;;;;;;-20.61;59.15;97843.06;6270485;28;19921;-67
2024/01/17 03:06:50;;;;;;;;;;;;;;;-20.66;58.80;97852.75;6252442;28;19928;-66
2024/01/17 03:09:51;;;;;;;;;;;;;;;-20.90;59.82;97856.88;6269856;28;19921;-67
2024/01/17 03:12:57;;;;;;;;;;;;;;;-20.97;59.91;97859.72;6270266;28;19940;-67
2024/01/17 03:16:01;;;;;;;;;;;;;;;-20.96;59.65;97870.56;6270503;28;19986;-68
2024/01/17 03:19:02;;;;;;;;;;;;;;;-20.64;60.00;97867.84;6269426;28;19920;-66
2024/01/17 03:22:03;;;;;;;;;;;;;;;-20.71;59.96;97881.56;6270117;28;19921;-67
2024/01/17 03:25:04;;;;;;;;;;;;;;;-20.77;59.40;97868.63;6269167;28;19927;-66
2024/01/17 03:28:05;;;;;;;;;;;;;;;-20.96;59.33;97876.44;6269946;28;20595;-66
2024/01/17 03:31:09;;;;;;;;;;;;;;;-20.64;59.25;97881.22;6257891;28;19921;-67
2024/01/17 03:34:10;;;;;;;;;;;;;;;-20.69;58.83;97884.16;6245752;28;20027;-67
2024/01/17 03:37:16;;;;;;;;;;;;;;;-20.56;59.11;97871.78;6227878;28;19928;-67
2024/01/17 03:40:22;;;;;;;;;;;;;;;-20.63;59.58;97872.13;6244950;28;19921;-67
2024/01/17 03:43:27;;;;;;;;;;;;;;;-20.58;60.19;97875.78;6245025;28;19921;-66
2024/01/17 03:46:31;;;;;;;;;;;;;;;-20.95;60.17;97868.16;6244872;28;19924;-65
2024/01/17 03:49:32;;;;;;;;;;;;;;;-21.14;60.72;97865.09;6244985;28;19928;-66
2024/01/17 03:52:33;;;;;;;;;;;;;;;-21.00;61.18;97863.59;6244852;28;20023;-67
2024/01/17 03:55:34;;;;;;;;;;;;;;;-21.05;60.62;97859.91;6244478;28;19923;-67
2024/01/17 03:58:35;;;;;;;;;;;;;;;-21.10;61.18;97864.56;6244253;28;20375;-67
2024/01/17 04:01:43;;;;;;;;;;;;;;;-21.14;61.17;97870.09;6243684;28;19928;-66
2024/01/17 04:04:45;;;;;;;;;;;;;;;-20.94;61.57;97876.56;6244654;28;20328;-66
2024/01/17 04:07:46;;;;;;;;;;;;;;;-20.92;60.69;97885.88;6244616;28;19982;-65
2024/01/17 04:10:47;;;;;;;;;;;;;;;-21.00;60.90;97879.50;6244646;28;19921;-66
2024/01/17 04:13:51;;;;;;;;;;;;;;;-21.11;61.09;97875.34;6244335;28;19916;-67
2024/01/17 04:16:55;;;;;;;;;;;;;;;-20.82;61.88;97884.06;6244519;28;19921;-66
2024/01/17 04:19:58;;;;;;;;;;;;;;;-20.73;61.13;97870.56;6243394;28;19932;-67
2024/01/17 04:22:59;;;;;;;;;;;;;;;-20.57;60.47;97862.53;6243668;28;19920;-67
2024/01/17 04:26:03;;;;;;;;;;;;;;;-20.60;60.83;97856.44;6244198;28;20055;-67
2024/01/17 04:29:07;;;;;;;;;;;;;;;-20.82;60.26;97859.06;6243851;28;19932;-67
2024/01/17 04:32:10;;;;;;;;;;;;;;;-20.90;60.74;97859.38;6264474;28;19917;-67
2024/01/17 04:35:17;;;;;;;;;;;;;;;-20.68;61.67;97850.91;6268920;28;20279;-66
2024/01/17 04:38:20;;;;;;;;;;;;;;;-20.56;60.76;97850.91;6269093;28;20442;-67
2024/01/17 04:41:21;;;;;;;;;;;;;;;-20.55;60.75;97865.13;6268060;28;19928;-67
2024/01/17 04:44:30;;;;;;;;;;;;;;;-20.51;60.89;97872.94;6250335;28;20555;-66
2024/01/17 04:47:35;;;;;;;;;;;;;;;-20.06;58.97;97856.88;6268735;28;20421;-66
2024/01/17 04:50:36;;;;;;;;;;;;;;;-20.20;59.15;97860.06;6268712;28;20401;-66
2024/01/17 04:53:37;;;;;;;;;;;;;;;-20.18;59.67;97879.44;6268842;28;20011;-66
2024/01/17 04:56:38;;;;;;;;;;;;;;;-19.96;59.71;97874.25;6273022;28;20278;-66
2024/01/17 04:59:39;;;;;;;;;;;;;;;-19.88;59.61;97867.28;6273303;28;19921;-67
2024/01/17 05:02:40;;;;;;;;;;;;;;;-19.92;59.80;97861.94;6273642;28;19920;-67
2024/01/17 05:05:44;;;;;;;;;;;;;;;-19.95;59.23;97858.47;6273107;28;19936;-67
2024/01/17 05:08:44;;;;;;;;;;;;;;;-19.85;60.02;97866.63;6273302;28;20309;-67
2024/01/17 05:11:45;;;;;;;;;;;;;;;-19.78;59.94;97851.25;6272720;28;19921;-67
2024/01/17 05:14:49;;;;;;;;;;;;;;;-19.71;59.78;97848.38;6273178;28;20293;-66
2024/01/17 05:17:49;;;;;;;;;;;;;;;-19.34;59.33;97850.78;6273203;28;19967;-67
2024/01/17 05:20:50;;;;;;;;;;;;;;;-19.50;59.30;97846.38;6273192;28;19921;-68
2024/01/17 05:23:55;;;;;;;;;;;;;;;-19.05;57.46;97841.03;6272809;28;20393;-67
2024/01/17 05:26:56;;;;;;;;;;;;;;;-19.50;58.01;97839.75;6272869;28;20370;-66
2024/01/17 05:29:59;;;;;;;;;;;;;;;-19.25;58.31;97836.34;6270398;28;19921;-67
2024/01/17 05:33:00;;;;;;;;;;;;;;;-19.11;57.40;97828.06;6247089;28;19928;-66
2024/01/17 05:36:01;;;;;;;;;;;;;;;-19.04;56.80;97826.84;6247319;28;19917;-66
2024/01/17 05:39:03;;;;;;;;;;;;;;;-19.01;56.62;97827.03;6248983;28;19928;-68
2024/01/17 05:42:08;;;;;;;;;;;;;;;-18.86;56.04;97824.63;6247992;28;19925;-67
2024/01/17 05:45:11;;;;;;;;;;;;;;;-18.84;55.93;97823.09;6247087;28;20331;-68
2024/01/17 05:48:15;;;;;;;;;;;;;;;-18.94;56.44;97823.28;6247233;28;19921;-67
2024/01/17 05:51:17;;;;;;;;;;;;;;;-18.70;56.33;97819.78;6247233;28;20306;-68
2024/01/17 05:54:17;;;;;;;;;;;;;;;-18.32;54.40;97818.78;6247616;28;19921;-67
2024/01/17 05:57:19;;;;;;;;;;;;;;;-18.35;54.53;97818.59;6247570;28;20309;-67
2024/01/17 06:00:22;;;;;;;;;;;;;;;-18.32;54.41;97813.75;6241656;28;19924;-68
2024/01/17 06:03:23;;;;;;;;;;;;;;;-18.04;53.80;97815.47;6271848;28;19928;-67
2024/01/17 06:06:28;;;;;;;;;;;;;;;-18.06;53.88;97812.84;6270383;28;19924;-66
2024/01/17 06:09:29;;;;;;;;;;;;;;;-18.09;54.26;97816.81;6271614;28;19921;-67
2024/01/17 06:12:31;;;;;;;;;;;;;;;-17.74;54.61;97807.22;6271355;28;20585;-67
2024/01/17 06:15:32;;;;;;;;;;;;;;;-17.29;52.44;97793.06;6271751;28;20019;-67
2024/01/17 06:18:35;;;;;;;;;;;;;;;-17.48;52.84;97805.34;6271603;28;19917;-67
2024/01/17 06:21:36;;;;;;;;;;;;;;;-17.30;52.46;97808.91;6271342;28;19927;-67
2024/01/17 06:24:42;;;;;;;;;;;;;;;-17.22;53.15;97811.88;6271562;28;19920;-68
2024/01/17 06:27:43;;;;;;;;;;;;;;;-16.82;51.86;97809.09;6271529;28;19928;-67
2024/01/17 06:30:46;;;;;;;;;;;;;;;-16.46;51.61;97801.81;6271597;28;20011;-67
2024/01/17 06:33:47;;;;;;;;;;;;;;;-16.52;51.68;97802.34;6270956;28;20428;-67
2024/01/17 06:36:50;;;;;;;;;;;;;;;-16.38;52.16;97798.94;6271198;28;20011;-68
2024/01/17 06:39:56;;;;;;;;;;;;;;;-16.49;51.50;97812.59;6271228;28;19924;-67
2024/01/17 06:42:57;;;;;;;;;;;;;;;-16.58;51.19;97812.97;6271034;28;19990;-67
2024/01/17 06:45:58;;;;;;;;;;;;;;;-16.59;50.95;97805.31;6269830;28;19916;-68
2024/01/17 06:49:01;;;;;;;;;;;;;;;-16.64;51.27;97806.69;6270949;28;20381;-67
2024/01/17 06:52:06;;;;;;;;;;;;;;;-16.66;51.41;97816.72;6271148;28;20406;-68
2024/01/17 06:55:12;;;;;;;;;;;;;;;-16.46;51.33;97815.28;6270863;28;20075;-67
2024/01/17 06:58:13;;;;;;;;;;;;;;;-16.09;49.56;97815.59;6270626;28;20396;-68
2024/01/17 07:01:14;;;;;;;;;;;;;;;-16.33;49.29;97815.19;6252623;28;19921;-67
2024/01/17 07:04:15;;;;;;;;;;;;;;;-16.64;49.78;97789.97;6245775;28;19921;-68
2024/01/17 07:07:16;;;;;;;;;;;;;;;-16.80;50.66;97795.81;6245789;28;20019;-68
2024/01/17 07:10:23;;;;;;;;;;;;;;;-16.80;50.70;97780.72;6245927;28;19924;-67
2024/01/17 07:13:24;;;;;;;;;;;;;;;-16.71;50.32;97789.53;6245374;28;19921;-67
2024/01/17 07:16:25;;;;;;;;;;;;;;;-16.67;50.40;97781.34;6244747;28;19928;-67
2024/01/17 07:19:26;;;;;;;;;;;;;;;-16.52;50.18;97793.16;6244970;28;20302;-67
2024/01/17 07:22:27;;;;;;;;;;;;;;;-16.69;50.65;97793.00;6245048;28;19927;-67
2024/01/17 07:25:32;;;;;;;;;;;;;;;-16.32;49.85;97784.16;6245844;28;19933;-68
2024/01/17 07:28:35;;;;;;;;;;;;;;;-16.22;49.00;97777.94;6245728;28;19921;-68
2024/01/17 07:31:39;;;;;;;;;;;;;;;-16.48;49.88;97776.53;6245300;28;19920;-67
2024/01/17 07:34:39;;;;;;;;;;;;;;;-16.40;49.75;97767.75;6244398;28;19921;-68
2024/01/17 07:37:43;;;;;;;;;;;;;;;-16.34;49.48;97778.16;6245239;28;19921;-68
2024/01/17 07:40:46;;;;;;;;;;;;;;;-16.30;49.28;97771.66;6244528;28;19928;-67
2024/01/17 07:43:47;;;;;;;;;;;;;;;-16.60;49.83;97765.81;6244434;28;20390;-68
2024/01/17 07:46:48;;;;;;;;;;;;;;;-16.46;49.62;97767.41;6244306;28;19927;-69
2024/01/17 07:49:51;;;;;;;;;;;;;;;-16.41;49.29;97750.03;6245151;28;19921;-67
2024/01/17 07:52:52;;;;;;;;;;;;;;;-16.47;49.37;97745.53;6244682;28;19921;-67
2024/01/17 07:55:55;;;;;;;;;;;;;;;-16.56;50.24;97742.50;6244526;28;20070;-67
2024/01/17 07:58:56;;;;;;;;;;;;;;;-16.37;50.03;97732.63;6243774;28;19931;-66
2024/01/17 08:02:00;;;;;;;;;;;;;;;-16.57;50.32;97738.28;6244526;28;19925;-67
2024/01/17 08:05:03;;;;;;;;;;;;;;;-16.57;50.75;97749.22;6227090;28;20016;-69
2024/01/17 08:08:04;;;;;;;;;;;;;;;-16.43;50.39;97744.06;6243500;28;20006;-68
2024/01/17 08:11:11;;;;;;;;;;;;;;;-16.06;50.24;97741.81;6244281;28;19920;-66
2024/01/17 08:14:14;;;;;;;;;;;;;;;-15.91;49.29;97729.97;6244312;28;19921;-67
2024/01/17 08:17:16;;;;;;;;;;;;;;;-15.75;50.19;97715.66;6243612;28;19920;-68
2024/01/17 08:20:19;;;;;;;;;;;;;;;-15.31;49.23;97706.84;6244195;28;20341;-68
2024/01/17 08:23:22;;;;;;;;;;;;;;;-14.99;47.60;97701.69;6243530;28;19928;-68
2024/01/17 08:26:26;;;;;;;;;;;;;;;-14.85;47.26;97691.38;6243307;28;19917;-68
2024/01/17 08:29:27;;;;;;;;;;;;;;;-15.11;46.78;97702.75;6243390;28;19925;-67
2024/01/17 08:32:31;;;;;;;;;;;;;;;-15.25;47.95;97699.59;6243977;28;19916;-69
2024/01/17 08:35:32;;;;;;;;;;;;;;;-15.03;47.43;97706.50;6243191;28;19927;-68
2024/01/17 08:38:35;;;;;;;;;;;;;;;-15.24;47.81;97701.31;6244219;28;20306;-67
2024/01/17 08:41:37;;;;;;;;;;;;;;;-15.25;47.42;97704.66;6243385;28;19932;-67
2024/01/17 08:44:42;;;;;;;;;;;;;;;-15.46;47.82;97699.41;6243957;28;19921;-68
2024/01/17 08:47:44;;;;;;;;;;;;;;;-15.49;47.44;97705.16;6243737;28;19928;-67
2024/01/17 08:50:45;;;;;;;;;;;;;;;-15.75;47.83;97705.56;6243652;28;20026;-68
2024/01/17 08:53:47;;;;;;;;;;;;;;;-15.89;48.34;97678.00;6225852;28;20010;-67
2024/01/17 08:56:51;;;;;;;;;;;;;;;-15.93;48.71;97655.94;6244034;28;19921;-67
2024/01/17 08:59:52;;;;;;;;;;;;;;;-15.72;48.32;97655.28;6243036;28;19921;-67
2024/01/17 09:02:53;;;;;;;;;;;;;;;-15.81;48.40;97654.81;6243426;28;19921;-68
2024/01/17 09:05:54;;;;;;;;;;;;;;;-15.83;48.05;97652.22;6243812;28;20360;-68
2024/01/17 09:08:57;;;;;;;;;;;;;;;-15.78;47.85;97652.47;6244325;28;20310;-67
2024/01/17 09:11:58;;;;;;;;;;;;;;;-16.17;48.48;97669.81;6242590;28;19921;-67
2024/01/17 09:15:02;;;;;;;;;;;;;;;-15.91;47.99;97649.31;6243902;28;20008;-66
2024/01/17 09:18:04;;;;;;;;;;;;;;;-16.16;48.61;97642.19;6242641;28;19929;-68
2024/01/17 09:21:07;;;;;;;;;;;;;;;-16.18;49.20;97650.47;6243806;28;19921;-68
2024/01/17 09:24:11;;;;;;;;;;;;;;;-15.72;47.85;97650.22;6243624;28;19928;-67
2024/01/17 09:27:12;;;;;;;;;;;;;;;-16.00;48.00;97633.72;6243173;28;20276;-66
2024/01/17 09:30:13;;;;;;;;;;;;;;;-15.98;47.70;97621.22;6242721;28;19986;-67
2024/01/17 09:33:15;;;;;;;;;;;;;;;-15.96;48.08;97615.47;6243334;28;19921;-67
2024/01/17 09:36:16;;;;;;;;;;;;;;;-15.95;47.58;97607.09;6243255;28;19921;-68
2024/01/17 09:39:20;;;;;;;;;;;;;;;-16.12;47.94;97623.03;6243527;28;19927;-68
2024/01/17 09:42:21;;;;;;;;;;;;;;;-16.07;48.01;97626.66;6247587;28;20474;-67
2024/01/17 09:45:29;;;;;;;;;;;;;;;-16.29;48.35;97614.63;6247692;28;19975;-68
2024/01/17 09:48:33;;;;;;;;;;;;;;;-16.60;48.61;97612.19;6247207;28;20411;-68
2024/01/17 09:51:37;;;;;;;;;;;;;;;-16.44;48.79;97614.72;6230497;28;19921;-67
2024/01/17 09:54:41;;;;;;;;;;;;;;;-16.36;48.80;97608.41;6247218;28;19928;-68
2024/01/17 09:57:49;;;;;;;;;;;;;;;-16.32;48.20;97595.19;6247555;28;19920;-67
2024/01/17 10:00:56;;;;;;;;;;;;;;;-16.45;48.91;97570.16;6247325;28;19921;-67
2024/01/17 10:04:00;;;;;;;;;;;;;;;-16.48;48.75;97572.50;6247425;28;20390;-67
2024/01/17 10:07:05;;;;;;;;;;;;;;;-16.79;49.02;97555.88;6246733;28;19943;-69
2024/01/17 10:10:07;;;;;;;;;;;;;;;-16.80;49.01;97561.69;6246872;28;20513;-67
2024/01/17 10:13:11;;;;;;;;;;;;;;;-16.80;49.18;97573.44;6247120;28;20398;-69
2024/01/17 10:16:12;;;;;;;;;;;;;;;-16.77;49.08;97566.88;6246220;28;19928;-68
2024/01/17 10:19:24;;;;;;;;;;;;;;;-16.82;48.86;97580.88;6247216;28;20306;-66
2024/01/17 10:22:25;;;;;;;;;;;;;;;-16.75;49.47;97595.50;6246726;28;19921;-68
2024/01/17 10:25:36;;;;;;;;;;;;;;;-16.74;49.15;97593.84;6246853;28;20301;-67
2024/01/17 10:28:37;;;;;;;;;;;;;;;-16.62;49.47;97591.09;6246326;28;20039;-67
2024/01/17 10:31:41;;;;;;;;;;;;;;;-16.80;49.63;97594.41;6244834;28;19921;-68
2024/01/17 10:34:42;;;;;;;;;;;;;;;-16.66;49.35;97587.56;6270736;28;19990;-67
2024/01/17 10:37:48;;;;;;;;;;;;;;;-16.99;49.64;97587.53;6271167;28;19928;-67
2024/01/17 10:41:07;;;;;;;;;;;;;;;-16.91;49.75;97575.38;6271154;28;19920;-68
2024/01/17 10:44:08;;;;;;;;;;;;;;;-17.05;50.10;97578.81;6270750;28;20279;-67
2024/01/17 10:47:09;;;;;;;;;;;;;;;-17.01;50.58;97558.03;6270679;28;20007;-67
2024/01/17 10:50:13;;;;;;;;;;;;;;;-16.62;49.53;97518.06;6270975;28;19920;-67
2024/01/17 10:53:15;;;;;;;;;;;;;;;-17.03;49.96;97524.41;6269882;28;19920;-68
2024/01/17 10:56:22;;;;;;;;;;;;;;;-16.90;50.30;97541.84;6271029;28;19917;-68
2024/01/17 10:59:26;;;;;;;;;;;;;;;-16.99;50.67;97546.41;6270537;28;19936;-68
2024/01/17 11:02:27;;;;;;;;;;;;;;;-16.87;50.45;97536.13;6270502;28;20406;-68
2024/01/17 11:05:33;;;;;;;;;;;;;;;-16.84;50.57;97531.25;6270145;28;20290;-68
2024/01/17 11:08:37;;;;;;;;;;;;;;;-16.80;50.52;97539.03;6252467;28;20019;-68
2024/01/17 11:11:41;;;;;;;;;;;;;;;-16.70;50.96;97529.41;6269994;28;20252;-67
2024/01/17 11:14:43;;;;;;;;;;;;;;;-16.52;49.95;97520.28;6270498;28;19928;-67
2024/01/17 11:17:49;;;;;;;;;;;;;;;-16.56;50.09;97498.22;6270157;28;20386;-68
2024/01/17 11:20:51;;;;;;;;;;;;;;;-16.65;50.37;97497.75;6252045;28;19920;-68
2024/01/17 11:24:08;;;;;;;;;;;;;;;-16.81;51.14;97503.69;6270222;28;19921;-67
2024/01/17 11:27:08;;;;;;;;;;;;;;;-16.75;51.31;97487.25;6269747;28;20298;-67
2024/01/17 11:30:14;;;;;;;;;;;;;;;-16.83;51.72;97483.50;6265726;28;19921;-68
2024/01/17 11:33:18;;;;;;;;;;;;;;;-16.85;51.93;97469.97;6244589;28;19920;-66
2024/01/17 11:36:37;;;;;;;;;;;;;;;-16.98;52.26;97452.53;6244550;28;19922;-68
2024/01/17 11:39:38;;;;;;;;;;;;;;;-16.88;52.60;97449.69;6244896;28;20422;-69
2024/01/17 11:42:41;;;;;;;;;;;;;;;-17.01;53.10;97457.38;6245093;28;19920;-68
2024/01/17 11:45:42;;;;;;;;;;;;;;;-17.11;53.26;97455.22;6244395;28;19928;-68
2024/01/17 11:48:47;;;;;;;;;;;;;;;-16.98;53.70;97475.19;6245041;28;20305;-67
2024/01/17 11:51:50;;;;;;;;;;;;;;;-16.81;53.68;97454.25;6244814;28;19921;-68
2024/01/17 11:54:54;;;;;;;;;;;;;;;-16.95;53.53;97456.84;6245189;28;19925;-68
2024/01/17 11:57:59;;;;;;;;;;;;;;;-16.79;53.94;97460.19;6244812;28;19921;-68
2024/01/17 12:01:03;;;;;;;;;;;;;;;-16.94;53.86;97448.50;6243810;28;19921;-67
2024/01/17 12:04:17;;;;;;;;;;;;;;;-16.59;53.65;97472.88;6243269;28;19921;-67
2024/01/17 12:07:20;;;;;;;;;;;;;;;-16.83;54.02;97463.38;6227409;28;19925;-68
2024/01/17 12:10:22;;;;;;;;;;;;;;;-16.85;54.20;97471.63;6244441;28;19921;-68
2024/01/17 12:13:26;;;;;;;;;;;;;;;-16.60;54.47;97471.16;6244275;28;20262;-69
2024/01/17 12:16:27;;;;;;;;;;;;;;;-16.78;54.29;97461.94;6244281;28;19929;-69
2024/01/17 12:19:32;;;;;;;;;;;;;;;-16.86;54.38;97478.31;6243892;28;19928;-69
2024/01/17 12:22:34;;;;;;;;;;;;;;;-16.70;54.60;97476.53;6243621;28;19928;-67
2024/01/17 12:25:38;;;;;;;;;;;;;;;-16.71;54.56;97492.44;6225836;28;20063;-68
2024/01/17 12:28:38;;;;;;;;;;;;;;;-16.69;54.26;97498.41;6226113;28;19921;-67
2024/01/17 12:31:43;;;;;;;;;;;;;;;-16.70;54.34;97495.00;6244361;28;19921;-67
2024/01/17 12:34:46;;;;;;;;;;;;;;;-16.55;54.96;97469.75;6226333;28;19920;-67
2024/01/17 12:37:47;;;;;;;;;;;;;;;-16.68;54.59;97472.44;6244545;28;19925;-70
2024/01/17 12:40:50;;;;;;;;;;;;;;;-16.52;55.43;97474.94;6243953;28;19922;-67
2024/01/17 12:43:54;;;;;;;;;;;;;;;-16.34;54.60;97469.91;6244193;28;19944;-68
2024/01/17 12:46:57;;;;;;;;;;;;;;;-16.49;55.05;97459.97;6244083;28;19925;-68
2024/01/17 12:50:01;;;;;;;;;;;;;;;-16.64;55.27;97459.19;6244127;28;19921;-67
2024/01/17 12:53:03;;;;;;;;;;;;;;;-16.50;55.41;97463.25;6243756;28;20019;-67
2024/01/17 12:56:05;;;;;;;;;;;;;;;-16.48;54.73;97456.66;6243383;28;19929;-68
2024/01/17 12:59:08;;;;;;;;;;;;;;;-16.36;54.74;97469.88;6243805;28;19921;-68
2024/01/17 13:02:15;;;;;;;;;;;;;;;-16.63;55.19;97461.81;6243698;28;19921;-68
2024/01/17 13:05:22;;;;;;;;;;;;;;;-16.45;55.35;97456.78;6243944;28;20040;-67
2024/01/17 13:08:23;;;;;;;;;;;;;;;-16.59;55.65;97466.19;6244017;28;19916;-68
2024/01/17 13:11:25;;;;;;;;;;;;;;;-16.63;55.55;97453.41;6243745;28;19924;-67
2024/01/17 13:14:29;;;;;;;;;;;;;;;-16.51;55.42;97436.34;6244235;28;19921;-66
2024/01/17 13:17:33;;;;;;;;;;;;;;;-16.36;55.64;97443.78;6248086;28;19921;-68
2024/01/17 13:20:38;;;;;;;;;;;;;;;-16.38;55.12;97451.28;6248178;28;20303;-69
2024/01/17 13:23:42;;;;;;;;;;;;;;;-16.48;55.42;97425.56;6248677;28;19921;-68
2024/01/17 13:26:48;;;;;;;;;;;;;;;-16.28;55.15;97442.50;6231018;28;19917;-68
2024/01/17 13:29:49;;;;;;;;;;;;;;;-16.33;55.07;97437.25;6249250;28;19921;-67
2024/01/17 13:32:52;;;;;;;;;;;;;;;-16.24;55.12;97430.94;6272711;28;20432;-68
2024/01/17 13:35:54;;;;;;;;;;;;;;;-16.21;54.71;97421.00;6271920;28;19921;-68
2024/01/17 13:38:55;;;;;;;;;;;;;;;-16.52;55.17;97420.38;6272023;28;19917;-70
2024/01/17 13:41:58;;;;;;;;;;;;;;;-16.29;54.82;97418.09;6271942;28;19921;-67
2024/01/17 13:45:01;;;;;;;;;;;;;;;-16.39;54.98;97415.94;6272174;28;19920;-67
2024/01/17 13:48:06;;;;;;;;;;;;;;;-16.19;54.83;97414.34;6272599;28;19920;-68
2024/01/17 13:51:12;;;;;;;;;;;;;;;-16.34;55.71;97405.28;6272092;28;19920;-68
2024/01/17 13:54:18;;;;;;;;;;;;;;;-16.11;55.12;97376.13;6271693;28;19921;-67
2024/01/17 13:57:19;;;;;;;;;;;;;;;-16.09;55.04;97363.59;6272083;28;20074;-68
2024/01/17 14:00:22;;;;;;;;;;;;;;;-16.19;55.13;97391.66;6272195;28;19920;-68
2024/01/17 14:03:27;;;;;;;;;;;;;;;-16.16;55.92;97379.22;6272428;28;20001;-69
2024/01/17 14:06:28;;;;;;;;;;;;;;;-16.26;55.85;97377.06;6271241;28;19916;-69
2024/01/17 14:09:32;;;;;;;;;;;;;;;-16.38;56.15;97388.31;6270998;28;19920;-69
2024/01/17 14:12:36;;;;;;;;;;;;;;;-16.35;56.22;97385.94;6271723;28;19928;-69
2024/01/17 14:15:37;;;;;;;;;;;;;;;-16.07;56.17;97378.00;6271615;28;19923;-67
2024/01/17 14:18:38;;;;;;;;;;;;;;;-16.11;56.07;97380.28;6270923;28;20392;-68
2024/01/17 14:21:41;;;;;;;;;;;;;;;-16.06;55.98;97401.53;6271091;28;20027;-68
2024/01/17 14:24:42;;;;;;;;;;;;;;;-15.85;55.67;97412.63;6271394;28;19927;-68
2024/01/17 14:27:45;;;;;;;;;;;;;;;-16.00;55.53;97406.88;6270663;28;19920;-68
2024/01/17 14:30:49;;;;;;;;;;;;;;;-15.99;55.87;97398.53;6261885;28;20378;-69
2024/01/17 14:33:50;;;;;;;;;;;;;;;-16.10;56.12;97397.16;6246692;28;19920;-68
2024/01/17 14:36:53;;;;;;;;;;;;;;;-16.18;55.97;97385.84;6246674;28;19943;-68
2024/01/17 14:39:54;;;;;;;;;;;;;;;-16.19;56.15;97374.03;6246758;28;20298;-68
2024/01/17 14:42:58;;;;;;;;;;;;;;;-15.99;56.20;97390.06;6245978;28;19921;-68
2024/01/17 14:45:59;;;;;;;;;;;;;;;-15.87;56.14;97371.34;6245770;28;19928;-68
2024/01/17 14:49:00;;;;;;;;;;;;;;;-15.87;55.37;97368.81;6245567;28;20015;-68
2024/01/17 14:52:03;;;;;;;;;;;;;;;-15.96;56.23;97362.47;6246801;28;20027;-68
2024/01/17 14:55:06;;;;;;;;;;;;;;;-16.18;55.90;97378.31;6246393;28;20556;-67
2024/01/17 14:58:08;;;;;;;;;;;;;;;-16.14;56.92;97385.19;6245709;28;19956;-68
2024/01/17 15:01:16;;;;;;;;;;;;;;;-16.02;56.83;97403.41;6246156;28;20016;-67
2024/01/17 15:04:22;;;;;;;;;;;;;;;-16.27;57.11;97411.50;6246513;28;19921;-68
2024/01/17 15:07:26;;;;;;;;;;;;;;;-16.23;57.50;97413.34;6245714;28;20386;-68
2024/01/17 15:10:32;;;;;;;;;;;;;;;-16.02;57.39;97428.59;6245799;28;20309;-68
2024/01/17 15:13:35;;;;;;;;;;;;;;;-16.00;57.18;97432.06;6245980;28;19920;-68
2024/01/17 15:16:38;;;;;;;;;;;;;;;-15.67;56.71;97422.66;6245635;28;20340;-67
2024/01/17 15:19:42;;;;;;;;;;;;;;;-15.71;56.75;97409.84;6245114;28;20434;-69
2024/01/17 15:22:43;;;;;;;;;;;;;;;-16.09;57.76;97414.00;6245156;28;20012;-66
2024/01/17 15:25:48;;;;;;;;;;;;;;;-16.06;58.23;97416.66;6227519;28;20442;-68
2024/01/17 15:28:51;;;;;;;;;;;;;;;-16.12;58.33;97426.47;6244856;28;19917;-67
2024/01/17 15:31:58;;;;;;;;;;;;;;;-16.11;58.52;97418.09;6264620;28;20396;-67
2024/01/17 15:35:02;;;;;;;;;;;;;;;-15.94;58.97;97402.09;6270201;28;19921;-68
2024/01/17 15:38:08;;;;;;;;;;;;;;;-15.82;59.13;97376.59;6270188;28;19921;-68